Time;durP1;ratioP1;P1;durP2;ratioP2;P2;SDS_P1;SDS_P2;PMS_P1;PMS_P2;Temp;Humidity;BMP_temperature;BMP_pressure;BME280_temperature;BME280_humidity;BME280_pressure;Samples;Min_cycle;Max_cycle;Signal;HPM_P1;HPM_P2
2023/08/01 00:02:23;;;;;;;1.20;1.20;;;19.40;76.80;;;;;;5019221;28;20502;-79
2023/08/01 00:04:49;;;;;;;1.10;1.10;;;19.40;76.70;;;;;;5026438;28;20156;-78
2023/08/01 00:07:14;;;;;;;1.27;1.20;;;19.40;76.70;;;;;;5028620;28;20033;-78
2023/08/01 00:09:40;;;;;;;1.00;1.00;;;19.40;76.80;;;;;;5031369;28;20014;-78
2023/08/01 00:12:06;;;;;;;1.30;1.20;;;19.40;76.70;;;;;;5029022;28;20026;-78
2023/08/01 00:14:32;;;;;;;1.02;0.95;;;19.30;76.60;;;;;;5029205;28;20033;-78
2023/08/01 00:16:58;;;;;;;1.17;1.10;;;19.40;76.50;;;;;;5030632;28;20379;-78
2023/08/01 00:19:23;;;;;;;1.13;1.02;;;19.40;76.50;;;;;;5031492;28;20042;-78
2023/08/01 00:21:49;;;;;;;1.38;1.27;;;19.40;76.40;;;;;;5029171;28;20081;-78
2023/08/01 00:24:15;;;;;;;1.02;1.02;;;19.30;76.30;;;;;;5028736;28;20029;-78
2023/08/01 00:26:40;;;;;;;1.30;1.20;;;19.40;76.20;;;;;;5029163;28;20053;-79
2023/08/01 00:29:07;;;;;;;1.40;1.30;;;19.40;76.10;;;;;;5031747;28;20124;-79
2023/08/01 00:31:33;;;;;;;0.95;0.95;;;19.30;76.00;;;;;;5030538;28;20025;-78
2023/08/01 00:33:58;;;;;;;1.17;1.08;;;19.30;75.90;;;;;;5030426;28;20056;-79
2023/08/01 00:36:24;;;;;;;1.13;1.02;;;19.30;75.90;;;;;;5029849;28;20030;-78
2023/08/01 00:38:50;;;;;;;1.40;1.30;;;19.30;75.90;;;;;;5029004;28;20025;-78
2023/08/01 00:41:15;;;;;;;1.10;1.00;;;19.30;75.80;;;;;;5028496;28;20362;-78
2023/08/01 00:43:41;;;;;;;1.40;1.30;;;19.40;75.70;;;;;;5029683;28;20021;-78
2023/08/01 00:46:08;;;;;;;0.80;0.80;;;19.30;75.50;;;;;;5029788;28;20022;-79
2023/08/01 00:48:35;;;;;;;1.20;1.10;;;19.30;75.40;;;;;;5027446;28;20033;-78
2023/08/01 00:51:05;;;;;;;1.00;1.00;;;19.40;75.50;;;;;;5030293;28;20061;-78
2023/08/01 00:53:31;;;;;;;1.50;1.40;;;19.40;75.50;;;;;;5028218;28;20030;-79
2023/08/01 00:55:58;;;;;;;1.23;1.23;;;19.40;75.60;;;;;;5024535;28;20022;-79
2023/08/01 00:58:24;;;;;;;0.85;0.85;;;19.40;75.60;;;;;;5023995;28;20029;-78
2023/08/01 01:00:49;;;;;;;0.85;0.85;;;19.40;75.60;;;;;;5034276;28;20127;-77
2023/08/01 01:03:16;;;;;;;1.02;1.02;;;19.40;75.80;;;;;;5028414;28;20026;-80
2023/08/01 01:06:22;;;;;;;0.98;0.93;;;19.40;75.90;;;;;;5004187;28;20079;-78
2023/08/01 01:08:48;;;;;;;1.13;1.05;;;19.40;76.00;;;;;;5025502;28;20033;-79
2023/08/01 01:11:14;;;;;;;0.95;0.95;;;19.30;76.00;;;;;;5019976;28;20030;-80
2023/08/01 01:13:40;;;;;;;1.00;1.00;;;19.40;76.30;;;;;;5018795;28;20049;-80
2023/08/01 01:16:06;;;;;;;1.42;1.33;;;19.40;76.30;;;;;;5018526;28;20026;-79
2023/08/01 01:18:31;;;;;;;1.15;0.98;;;19.40;76.40;;;;;;5020351;28;20052;-78
2023/08/01 01:20:57;;;;;;;0.90;0.90;;;19.40;76.40;;;;;;5019662;28;20030;-79
2023/08/01 01:23:24;;;;;;;1.35;1.23;;;19.40;76.50;;;;;;5012870;28;20035;-79
2023/08/01 01:25:51;;;;;;;1.42;1.33;;;19.30;76.60;;;;;;5022559;28;20645;-78
2023/08/01 01:28:18;;;;;;;1.48;1.38;;;19.40;76.70;;;;;;5022202;28;20503;-79
2023/08/01 01:30:44;;;;;;;1.33;1.23;;;19.30;76.70;;;;;;5020715;28;20083;-79
2023/08/01 01:33:11;;;;;;;1.20;1.10;;;19.30;76.80;;;;;;5022836;28;20033;-79
2023/08/01 01:35:36;;;;;;;1.42;1.23;;;19.40;76.80;;;;;;5022592;28;20034;-80
2023/08/01 01:38:05;;;;;;;1.23;1.13;;;19.40;76.90;;;;;;5024684;28;20080;-80
2023/08/01 01:40:32;;;;;;;1.00;1.00;;;19.30;77.00;;;;;;5024499;28;20474;-79
2023/08/01 01:42:59;;;;;;;1.60;1.50;;;19.40;77.00;;;;;;5028395;28;20034;-79
2023/08/01 01:45:25;;;;;;;1.27;1.17;;;19.40;76.90;;;;;;5036947;28;20083;-79
2023/08/01 01:47:51;;;;;;;1.70;1.60;;;19.40;76.70;;;;;;5026786;28;20113;-78
2023/08/01 01:50:17;;;;;;;1.10;1.10;;;19.40;76.80;;;;;;5026413;28;20026;-78
2023/08/01 01:52:43;;;;;;;1.40;1.30;;;19.40;76.90;;;;;;5026873;28;20018;-79
2023/08/01 01:55:09;;;;;;;1.60;1.50;;;19.40;77.10;;;;;;5023614;28;20065;-79
2023/08/01 01:57:36;;;;;;;1.40;1.30;;;19.40;77.30;;;;;;5023244;28;20104;-79
2023/08/01 02:00:03;;;;;;;1.38;1.27;;;19.40;77.60;;;;;;5026951;28;20104;-79
2023/08/01 02:02:29;;;;;;;0.95;0.95;;;19.40;77.90;;;;;;5024740;28;20132;-78
2023/08/01 02:04:55;;;;;;;1.40;1.30;;;19.40;78.10;;;;;;5024654;28;20045;-79
2023/08/01 02:07:20;;;;;;;1.20;1.10;;;19.30;78.40;;;;;;5023891;28;20022;-79
2023/08/01 02:09:46;;;;;;;1.50;1.40;;;19.30;78.80;;;;;;5020811;28;20049;-80
2023/08/01 02:12:14;;;;;;;1.50;1.40;;;19.30;79.10;;;;;;5020203;28;20026;-80
2023/08/01 02:14:40;;;;;;;1.60;1.50;;;19.30;79.50;;;;;;5021539;28;20026;-80
2023/08/01 02:17:07;;;;;;;1.27;1.17;;;19.30;79.60;;;;;;5014303;28;20030;-80
2023/08/01 02:19:33;;;;;;;1.38;1.27;;;19.30;79.90;;;;;;5019325;28;20014;-80
2023/08/01 02:21:58;;;;;;;1.17;1.17;;;19.30;80.00;;;;;;5019681;28;20536;-80
2023/08/01 02:24:24;;;;;;;1.13;1.13;;;19.30;80.00;;;;;;5020665;28;20025;-80
2023/08/01 02:26:50;;;;;;;1.15;1.10;;;19.30;80.10;;;;;;5019649;28;20324;-79
2023/08/01 02:29:16;;;;;;;1.35;1.25;;;19.30;80.30;;;;;;5022172;28;20068;-80
2023/08/01 02:31:42;;;;;;;1.52;1.42;;;19.20;80.30;;;;;;5023509;28;20022;-79
2023/08/01 02:34:07;;;;;;;1.30;1.20;;;19.20;81.10;;;;;;5024939;28;20051;-80
2023/08/01 02:36:33;;;;;;;1.35;1.25;;;19.20;80.60;;;;;;5023016;28;20069;-80
2023/08/01 02:38:59;;;;;;;1.15;1.13;;;19.20;80.60;;;;;;5037977;28;20026;-79
2023/08/01 02:41:25;;;;;;;1.10;1.10;;;19.20;80.80;;;;;;5026706;28;20026;-80
2023/08/01 02:43:50;;;;;;;1.20;1.10;;;19.20;80.80;;;;;;5024317;28;20025;-80
2023/08/01 02:46:16;;;;;;;1.00;1.00;;;19.20;80.80;;;;;;5026783;28;20057;-78
2023/08/01 02:48:42;;;;;;;0.90;0.90;;;19.20;80.80;;;;;;5027789;28;20060;-79
2023/08/01 02:51:09;;;;;;;0.90;0.90;;;19.20;80.80;;;;;;5023913;28;20088;-78
2023/08/01 02:53:35;;;;;;;0.90;0.90;;;19.20;81.10;;;;;;5027661;28;20068;-78
2023/08/01 02:56:02;;;;;;;0.90;0.90;;;19.20;81.30;;;;;;5026138;28;20077;-80
2023/08/01 02:58:27;;;;;;;1.30;1.20;;;19.20;81.40;;;;;;5024876;28;20026;-80
2023/08/01 03:00:53;;;;;;;0.90;0.90;;;19.20;81.60;;;;;;5019759;28;20447;-80
2023/08/01 03:03:19;;;;;;;0.98;0.98;;;19.20;81.70;;;;;;5025095;28;20038;-80
2023/08/01 03:05:44;;;;;;;0.95;0.95;;;19.20;81.80;;;;;;5022652;28;20073;-79
2023/08/01 03:08:10;;;;;;;1.00;0.90;;;19.20;81.80;;;;;;5021880;28;20093;-80
2023/08/01 03:10:35;;;;;;;1.00;1.00;;;19.20;82.00;;;;;;5027548;28;20093;-80
2023/08/01 03:13:01;;;;;;;0.90;0.90;;;19.20;82.20;;;;;;5021659;28;20026;-80
2023/08/01 03:15:27;;;;;;;0.90;0.90;;;19.20;82.50;;;;;;5021238;28;20080;-80
2023/08/01 03:17:53;;;;;;;1.33;1.23;;;19.10;82.70;;;;;;5023406;28;20128;-80
2023/08/01 03:20:19;;;;;;;1.00;1.00;;;19.10;83.10;;;;;;5025577;28;20041;-80
2023/08/01 03:22:45;;;;;;;1.60;1.50;;;19.00;83.70;;;;;;5038193;28;20060;-80
2023/08/01 03:25:10;;;;;;;1.58;1.48;;;18.90;84.20;;;;;;5022706;28;20033;-79
2023/08/01 03:27:36;;;;;;;1.40;1.30;;;18.90;84.90;;;;;;5030296;28;20010;-78
2023/08/01 03:30:04;;;;;;;1.60;1.48;;;18.90;85.30;;;;;;5034514;28;20010;-77
2023/08/01 03:32:30;;;;;;;1.20;1.17;;;18.80;85.70;;;;;;5034853;28;20038;-78
2023/08/01 03:34:56;;;;;;;1.65;1.50;;;18.70;86.80;;;;;;5027236;28;20519;-78
2023/08/01 03:37:21;;;;;;;1.65;1.35;;;18.70;86.60;;;;;;5030675;28;20029;-79
2023/08/01 03:39:47;;;;;;;0.98;0.98;;;18.70;87.30;;;;;;5019930;28;20021;-80
2023/08/01 03:42:13;;;;;;;1.17;1.08;;;18.70;87.60;;;;;;5020112;28;20120;-80
2023/08/01 03:44:38;;;;;;;1.23;1.17;;;18.70;87.90;;;;;;5020120;28;20025;-80
2023/08/01 03:47:04;;;;;;;3.80;2.65;;;18.70;88.40;;;;;;5034607;28;20092;-79
2023/08/01 03:49:30;;;;;;;3.00;2.40;;;18.70;88.70;;;;;;5019284;28;20091;-79
2023/08/01 03:51:55;;;;;;;2.60;2.40;;;18.70;89.00;;;;;;5022375;28;20124;-80
2023/08/01 03:54:21;;;;;;;3.38;2.47;;;18.70;89.20;;;;;;5020107;28;20556;-80
2023/08/01 03:56:47;;;;;;;4.68;3.28;;;18.70;89.40;;;;;;5021353;28;20159;-80
2023/08/01 03:59:14;;;;;;;3.90;2.83;;;18.70;89.60;;;;;;5004694;28;20160;-77
2023/08/01 04:01:40;;;;;;;3.08;2.78;;;18.70;90.00;;;;;;4998161;28;20026;-76
2023/08/01 04:04:06;;;;;;;3.28;2.97;;;18.60;90.30;;;;;;4993381;28;20058;-76
2023/08/01 04:06:32;;;;;;;3.50;2.50;;;18.60;90.60;;;;;;4997855;28;20113;-75
2023/08/01 04:08:59;;;;;;;4.53;3.05;;;18.60;90.70;;;;;;4996082;28;20460;-77
2023/08/01 04:11:26;;;;;;;3.05;2.75;;;18.50;91.00;;;;;;5012673;28;20053;-75
2023/08/01 04:13:52;;;;;;;5.28;3.13;;;18.50;91.30;;;;;;5012475;28;20101;-76
2023/08/01 04:16:17;;;;;;;3.72;2.65;;;18.50;91.50;;;;;;5015044;28;20064;-75
2023/08/01 04:18:43;;;;;;;4.25;3.17;;;18.40;91.80;;;;;;5012453;28;20104;-75
2023/08/01 04:21:09;;;;;;;3.65;2.75;;;18.40;92.10;;;;;;5012675;28;20029;-76
2023/08/01 04:23:34;;;;;;;4.68;2.92;;;18.40;92.50;;;;;;5011988;28;20048;-76
2023/08/01 04:26:00;;;;;;;3.17;2.72;;;18.30;92.90;;;;;;5011857;28;20401;-75
2023/08/01 04:28:26;;;;;;;2.80;2.55;;;18.30;93.40;;;;;;5012644;28;20133;-75
2023/08/01 04:30:52;;;;;;;2.78;2.58;;;18.20;93.70;;;;;;5013207;28;20025;-76
2023/08/01 04:33:18;;;;;;;3.03;2.70;;;18.20;94.00;;;;;;5014638;28;20026;-74
2023/08/01 04:35:43;;;;;;;2.90;2.60;;;18.20;94.40;;;;;;5014965;28;20048;-75
2023/08/01 04:38:10;;;;;;;5.65;2.97;;;18.20;94.70;;;;;;5013576;28;20359;-76
2023/08/01 04:40:36;;;;;;;3.22;2.63;;;18.10;95.00;;;;;;5028120;28;20038;-75
2023/08/01 04:43:02;;;;;;;3.78;3.28;;;18.10;95.40;;;;;;5013922;28;20109;-75
2023/08/01 04:45:27;;;;;;;3.47;3.10;;;18.00;95.60;;;;;;5013661;28;20069;-75
2023/08/01 04:47:53;;;;;;;3.15;2.85;;;18.00;96.00;;;;;;5021624;28;20037;-74
2023/08/01 04:50:19;;;;;;;2.90;2.60;;;17.90;96.20;;;;;;5029229;28;20026;-75
2023/08/01 04:52:44;;;;;;;3.85;3.00;;;17.90;96.60;;;;;;5016138;28;20026;-75
2023/08/01 04:55:10;;;;;;;2.83;2.47;;;17.90;96.80;;;;;;5013486;28;20026;-75
2023/08/01 04:57:36;;;;;;;3.22;2.70;;;18.00;97.00;;;;;;5013085;28;20036;-75
2023/08/01 05:00:03;;;;;;;2.63;2.40;;;18.00;97.10;;;;;;5012677;28;20084;-75
2023/08/01 05:02:28;;;;;;;3.42;2.78;;;18.10;97.20;;;;;;5013827;28;20025;-76
2023/08/01 05:04:54;;;;;;;3.22;2.72;;;18.10;97.20;;;;;;5013575;28;20034;-76
2023/08/01 05:07:20;;;;;;;4.65;2.63;;;18.10;97.30;;;;;;5012240;28;20034;-75
2023/08/01 05:09:46;;;;;;;2.75;2.53;;;18.10;97.40;;;;;;5013938;28;20034;-76
2023/08/01 05:12:11;;;;;;;2.95;2.25;;;18.10;97.70;;;;;;5014812;28;20061;-76
2023/08/01 05:14:37;;;;;;;2.70;2.50;;;18.10;97.80;;;;;;5018511;28;20022;-76
2023/08/01 05:17:03;;;;;;;1.90;1.80;;;18.10;97.90;;;;;;5020464;28;20105;-75
2023/08/01 05:19:29;;;;;;;2.45;2.17;;;18.20;98.00;;;;;;5017783;28;20026;-76
2023/08/01 05:21:55;;;;;;;1.83;1.73;;;18.10;98.20;;;;;;5017794;28;20109;-76
2023/08/01 05:24:21;;;;;;;1.65;1.55;;;18.10;98.40;;;;;;5017758;28;20497;-76
2023/08/01 05:26:47;;;;;;;1.75;1.65;;;18.10;98.80;;;;;;5017399;28;20026;-76
2023/08/01 05:29:13;;;;;;;1.90;1.70;;;18.10;99.10;;;;;;5017697;28;20026;-75
2023/08/01 05:31:38;;;;;;;2.10;1.90;;;18.10;99.40;;;;;;5019147;28;20364;-75
2023/08/01 05:34:04;;;;;;;2.10;1.80;;;18.20;99.60;;;;;;5019793;28;20424;-75
2023/08/01 05:36:30;;;;;;;2.20;2.00;;;18.20;99.70;;;;;;5020097;28;20038;-75
2023/08/01 05:38:56;;;;;;;2.10;1.88;;;18.10;99.80;;;;;;5013357;28;20077;-75
2023/08/01 05:41:22;;;;;;;3.08;2.00;;;18.10;99.80;;;;;;5014593;28;20030;-76
2023/08/01 05:43:49;;;;;;;2.30;2.10;;;18.20;99.70;;;;;;5006896;28;20494;-76
2023/08/01 05:46:15;;;;;;;2.33;2.13;;;18.20;99.60;;;;;;5001456;28;20033;-75
2023/08/01 05:48:41;;;;;;;2.50;2.30;;;18.30;99.60;;;;;;5001651;28;20025;-74
2023/08/01 05:51:06;;;;;;;2.50;2.30;;;18.30;99.60;;;;;;5012972;28;20483;-76
2023/08/01 05:53:32;;;;;;;3.35;2.50;;;18.30;99.50;;;;;;5004205;28;20019;-76
2023/08/01 05:55:57;;;;;;;3.17;2.40;;;18.30;99.50;;;;;;5013328;28;20034;-75
2023/08/01 05:58:23;;;;;;;3.33;3.03;;;18.30;99.60;;;;;;5001382;28;20108;-75
2023/08/01 06:00:49;;;;;;;2.40;2.20;;;18.30;99.60;;;;;;5011336;28;20061;-75
2023/08/01 06:03:15;;;;;;;3.10;2.25;;;18.40;99.60;;;;;;5016591;28;20025;-74
2023/08/01 06:05:41;;;;;;;2.78;2.45;;;18.50;99.40;;;;;;5007388;28;20023;-75
2023/08/01 06:08:08;;;;;;;3.13;2.83;;;18.50;99.20;;;;;;5018478;28;20368;-76
2023/08/01 06:10:34;;;;;;;2.60;2.40;;;18.60;98.90;;;;;;5019209;28;20030;-75
2023/08/01 06:12:59;;;;;;;4.25;3.20;;;18.60;98.60;;;;;;5016046;28;20121;-76
2023/08/01 06:15:25;;;;;;;5.50;3.50;;;18.60;98.50;;;;;;5015551;28;20056;-75
2023/08/01 06:17:50;;;;;;;5.97;3.00;;;18.60;98.20;;;;;;5016087;28;20077;-75
2023/08/01 06:20:16;;;;;;;4.18;3.03;;;18.70;98.00;;;;;;5017242;28;20076;-75
2023/08/01 06:22:42;;;;;;;4.57;2.85;;;18.80;97.60;;;;;;5014850;28;20438;-75
2023/08/01 06:25:09;;;;;;;2.90;2.70;;;18.90;97.20;;;;;;5012586;28;20034;-75
2023/08/01 06:27:34;;;;;;;3.90;2.72;;;18.90;96.90;;;;;;5014605;28;20408;-77
2023/08/01 06:30:00;;;;;;;5.15;3.38;;;18.90;96.70;;;;;;5015910;28;20029;-75
2023/08/01 06:32:26;;;;;;;4.80;3.50;;;18.90;96.40;;;;;;5014637;28;20022;-75
2023/08/01 06:34:52;;;;;;;2.53;2.33;;;18.90;96.30;;;;;;5014212;28;20030;-75
2023/08/01 06:37:17;;;;;;;3.75;2.90;;;18.90;96.10;;;;;;5013160;28;20560;-75
2023/08/01 06:39:43;;;;;;;3.03;2.65;;;18.90;95.80;;;;;;5014483;28;20077;-75
2023/08/01 06:42:09;;;;;;;3.30;2.53;;;18.90;95.50;;;;;;5015286;28;20030;-75
2023/08/01 06:44:34;;;;;;;3.55;2.92;;;18.90;95.20;;;;;;5015432;28;20378;-76
2023/08/01 06:47:00;;;;;;;3.33;2.90;;;19.00;94.80;;;;;;5016572;28;20030;-76
2023/08/01 06:49:25;;;;;;;4.45;2.45;;;19.00;94.40;;;;;;5016717;28;20022;-77
2023/08/01 06:51:51;;;;;;;4.72;3.15;;;19.00;94.10;;;;;;5017034;28;20022;-76
2023/08/01 06:54:17;;;;;;;4.75;2.95;;;19.00;93.60;;;;;;5015713;28;20037;-77
2023/08/01 06:56:47;;;;;;;2.92;2.63;;;19.00;93.20;;;;;;5015496;28;20129;-76
2023/08/01 06:59:16;;;;;;;3.22;2.47;;;19.00;93.00;;;;;;5018086;28;20038;-76
2023/08/01 07:01:43;;;;;;;3.03;2.30;;;19.00;92.70;;;;;;5015853;28;20056;-76
2023/08/01 07:04:10;;;;;;;2.67;2.03;;;19.00;92.50;;;;;;5015371;28;20038;-76
2023/08/01 07:06:35;;;;;;;2.75;2.30;;;19.00;92.30;;;;;;5016335;28;20026;-76
2023/08/01 07:09:01;;;;;;;4.15;2.50;;;19.00;91.90;;;;;;5022134;28;20025;-76
2023/08/01 07:11:27;;;;;;;2.72;2.38;;;19.10;91.60;;;;;;5034149;28;20112;-76
2023/08/01 07:13:52;;;;;;;3.42;2.63;;;19.00;91.30;;;;;;5026178;28;20061;-75
2023/08/01 07:16:18;;;;;;;3.47;2.72;;;19.10;91.10;;;;;;5016457;28;20034;-75
2023/08/01 07:18:44;;;;;;;2.50;2.30;;;19.20;90.80;;;;;;5020368;28;20024;-76
2023/08/01 07:21:10;;;;;;;3.22;2.53;;;19.20;90.40;;;;;;5020407;28;20030;-75
2023/08/01 07:23:36;;;;;;;3.47;2.60;;;19.30;90.10;;;;;;5018746;28;20022;-76
2023/08/01 07:26:01;;;;;;;3.45;2.50;;;19.20;89.40;;;;;;5014639;28;20025;-75
2023/08/01 07:28:27;;;;;;;2.45;2.15;;;19.30;88.80;;;;;;5015111;28;20037;-75
2023/08/01 07:31:05;;;;;;;2.85;2.17;;;19.30;88.30;;;;;;5014779;28;20033;-75
2023/08/01 07:33:31;;;;;;;5.18;2.67;;;19.30;87.80;;;;;;5016658;28;20029;-75
2023/08/01 07:35:57;;;;;;;3.55;2.65;;;19.40;87.30;;;;;;5013524;28;20407;-75
2023/08/01 07:38:22;;;;;;;2.58;2.25;;;19.40;86.80;;;;;;5013387;28;20021;-76
2023/08/01 07:40:50;;;;;;;3.47;2.75;;;19.40;86.50;;;;;;5007248;28;20045;-76
2023/08/01 07:43:15;;;;;;;3.78;2.75;;;19.40;86.00;;;;;;4996076;28;20041;-76
2023/08/01 07:45:41;;;;;;;3.65;2.83;;;19.40;85.40;;;;;;4992764;28;20030;-77
2023/08/01 07:48:07;;;;;;;3.92;2.80;;;19.50;84.80;;;;;;5012926;28;20018;-76
2023/08/01 07:50:33;;;;;;;3.67;2.70;;;19.60;84.20;;;;;;4994979;28;20018;-76
2023/08/01 07:52:58;;;;;;;4.20;3.10;;;19.80;83.50;;;;;;4995788;28;20057;-76
2023/08/01 07:55:24;;;;;;;3.05;2.70;;;20.00;82.80;;;;;;4993851;28;20112;-75
2023/08/01 07:57:50;;;;;;;3.17;2.50;;;20.10;82.00;;;;;;5012733;28;20044;-76
2023/08/01 08:00:16;;;;;;;2.70;2.50;;;20.20;81.10;;;;;;5004812;28;20041;-76
2023/08/01 08:02:43;;;;;;;4.68;2.47;;;20.40;80.80;;;;;;5012994;28;20121;-75
2023/08/01 08:05:09;;;;;;;3.47;2.58;;;20.50;80.60;;;;;;4997928;28;20571;-76
2023/08/01 08:07:36;;;;;;;4.00;2.47;;;20.50;80.50;;;;;;5001577;28;20057;-75
2023/08/01 08:10:01;;;;;;;4.20;2.45;;;20.50;80.50;;;;;;5013178;28;20014;-75
2023/08/01 08:12:27;;;;;;;4.05;2.80;;;20.40;81.10;;;;;;5013098;28;20029;-75
2023/08/01 08:14:52;;;;;;;3.00;2.70;;;20.50;81.50;;;;;;5012648;28;20083;-75
2023/08/01 08:17:18;;;;;;;2.85;2.38;;;20.60;81.60;;;;;;5013014;28;20025;-75
2023/08/01 08:19:44;;;;;;;3.58;2.80;;;20.80;81.30;;;;;;5012547;28;20029;-76
2023/08/01 08:22:09;;;;;;;3.65;2.90;;;21.20;80.10;;;;;;5013036;28;20106;-76
2023/08/01 08:24:35;;;;;;;3.15;2.85;;;21.70;77.80;;;;;;5012740;28;20022;-75
2023/08/01 08:27:01;;;;;;;3.55;3.25;;;22.10;76.30;;;;;;5015286;28;20018;-76
2023/08/01 08:29:26;;;;;;;3.08;2.33;;;22.50;75.20;;;;;;5012534;28;20039;-75
2023/08/01 08:31:52;;;;;;;2.97;2.38;;;22.70;74.20;;;;;;5012915;28;20487;-76
2023/08/01 08:34:18;;;;;;;3.50;2.55;;;22.90;73.40;;;;;;5014093;28;20029;-75
2023/08/01 08:36:43;;;;;;;3.08;2.28;;;22.90;72.50;;;;;;5011814;28;20034;-75
2023/08/01 08:39:09;;;;;;;3.33;2.55;;;22.90;72.50;;;;;;5010380;28;20022;-76
2023/08/01 08:41:53;;;;;;;2.42;2.20;;;22.90;72.50;;;;;;5011879;28;20038;-75
2023/08/01 08:44:20;;;;;;;3.15;2.85;;;22.90;72.10;;;;;;5012545;28;20029;-76
2023/08/01 08:46:51;;;;;;;4.15;2.60;;;23.00;71.60;;;;;;5015933;28;20089;-76
2023/08/01 08:49:19;;;;;;;4.43;2.85;;;22.90;71.40;;;;;;4999026;28;20026;-76
2023/08/01 08:51:46;;;;;;;2.72;2.28;;;22.90;71.60;;;;;;4997852;28;20022;-75
2023/08/01 08:54:12;;;;;;;2.85;2.55;;;22.80;71.80;;;;;;4998202;28;20026;-75
2023/08/01 08:56:40;;;;;;;2.80;2.40;;;22.80;72.00;;;;;;5028031;28;20042;-75
2023/08/01 08:59:07;;;;;;;2.45;2.00;;;22.70;72.10;;;;;;5036446;28;20050;-75
2023/08/01 09:01:34;;;;;;;2.60;2.40;;;22.80;72.40;;;;;;5005173;28;20383;-75
2023/08/01 09:03:59;;;;;;;2.70;2.35;;;22.80;72.40;;;;;;5011165;28;20026;-74
2023/08/01 09:06:30;;;;;;;2.85;2.45;;;22.90;71.80;;;;;;5016947;28;20121;-76
2023/08/01 09:09:00;;;;;;;2.45;2.25;;;22.90;71.50;;;;;;5017542;28;20087;-76
2023/08/01 09:11:29;;;;;;;3.88;2.30;;;22.90;71.50;;;;;;5018190;28;20021;-75
2023/08/01 09:13:58;;;;;;;3.17;2.88;;;22.70;71.50;;;;;;5026939;28;20571;-75
2023/08/01 09:16:24;;;;;;;5.40;3.28;;;22.50;71.70;;;;;;5017889;28;20034;-75
2023/08/01 09:18:53;;;;;;;3.28;2.97;;;22.40;71.80;;;;;;5019230;28;20045;-75
2023/08/01 09:21:20;;;;;;;3.47;2.88;;;22.20;72.50;;;;;;5016929;28;20061;-75
2023/08/01 09:23:46;;;;;;;3.95;2.83;;;22.20;72.80;;;;;;5017178;28;20102;-75
2023/08/01 09:26:19;;;;;;;4.53;3.35;;;22.20;72.60;;;;;;5016289;28;20742;-75
2023/08/01 09:28:55;;;;;;;3.58;2.97;;;22.30;71.90;;;;;;5016217;28;20030;-76
2023/08/01 09:31:27;;;;;;;4.38;3.10;;;22.40;72.00;;;;;;5016152;28;20382;-75
2023/08/01 09:33:53;;;;;;;4.22;3.35;;;22.50;71.50;;;;;;5016621;28;20052;-75
2023/08/01 09:36:23;;;;;;;5.13;3.60;;;22.70;71.20;;;;;;5017462;28;20041;-76
2023/08/01 09:38:49;;;;;;;5.65;3.83;;;22.80;70.60;;;;;;5017847;28;20084;-75
2023/08/01 09:41:18;;;;;;;3.35;2.95;;;22.80;70.60;;;;;;5017163;28;20030;-75
2023/08/01 09:43:45;;;;;;;4.22;3.40;;;22.70;70.60;;;;;;5017281;28;20033;-74
2023/08/01 09:46:12;;;;;;;6.93;3.90;;;22.60;70.30;;;;;;5016721;28;20374;-75
2023/08/01 09:48:38;;;;;;;4.25;3.50;;;22.60;70.60;;;;;;5008010;28;20189;-75
2023/08/01 09:51:08;;;;;;;5.60;3.40;;;22.50;71.00;;;;;;5016799;28;20030;-74
2023/08/01 09:53:35;;;;;;;5.03;3.88;;;22.40;71.30;;;;;;5014933;28;20025;-75
2023/08/01 09:56:04;;;;;;;4.25;3.65;;;22.30;71.10;;;;;;5016811;28;20033;-75
2023/08/01 09:58:34;;;;;;;5.40;3.75;;;22.30;70.80;;;;;;5016064;28;20030;-75
2023/08/01 10:01:03;;;;;;;6.38;3.50;;;22.20;71.00;;;;;;5016584;28;20025;-74
2023/08/01 10:03:29;;;;;;;4.13;3.58;;;22.10;70.40;;;;;;5016355;28;20033;-75
2023/08/01 10:05:56;;;;;;;6.88;3.60;;;22.00;69.70;;;;;;5017015;28;20089;-75
2023/08/01 10:08:22;;;;;;;6.13;3.40;;;;;;;;;;5023460;28;20025;-75
2023/08/01 10:10:49;;;;;;;6.38;3.55;;;;;;;;;;5016275;28;20034;-75
2023/08/01 10:13:15;;;;;;;5.63;3.47;;;21.60;72.20;;;;;;5001152;28;20109;-74
2023/08/01 10:15:41;;;;;;;3.58;3.10;;;21.40;73.40;;;;;;5018208;28;20017;-75
2023/08/01 10:18:09;;;;;;;6.75;3.45;;;21.30;73.40;;;;;;5019112;28;20021;-75
2023/08/01 10:20:37;;;;;;;4.18;2.70;;;21.20;73.30;;;;;;5017545;28;20022;-75
2023/08/01 10:23:04;;;;;;;4.80;3.53;;;21.20;73.30;;;;;;5007555;28;20121;-74
2023/08/01 10:25:30;;;;;;;8.30;3.95;;;21.30;72.40;;;;;;4998529;28;20109;-75
2023/08/01 10:28:00;;;;;;;5.28;3.20;;;;;;;;;;5003908;28;20062;-75
2023/08/01 10:30:27;;;;;;;3.95;2.95;;;21.10;72.10;;;;;;5003141;28;20045;-77
2023/08/01 10:32:58;;;;;;;5.63;3.08;;;21.00;73.80;;;;;;5025990;28;20030;-76
2023/08/01 10:35:37;;;;;;;4.85;2.90;;;21.00;73.90;;;;;;5008184;28;20043;-75
2023/08/01 10:38:12;;;;;;;3.72;2.85;;;20.90;76.20;;;;;;5007290;28;20259;-75
2023/08/01 10:40:42;;;;;;;4.43;3.15;;;20.60;77.80;;;;;;5016475;28;20030;-75
2023/08/01 10:43:24;;;;;;;3.63;2.90;;;20.60;78.80;;;;;;5016374;28;20038;-75
2023/08/01 10:46:03;;;;;;;;;;;20.60;78.90;;;;;;5016664;28;20053;-75
2023/08/01 10:48:28;;;;;;;4.00;3.08;;;20.70;78.90;;;;;;5017487;28;19906;-74
2023/08/01 10:50:57;;;;;;;6.60;3.35;;;20.60;79.30;;;;;;5017545;28;20053;-75
2023/08/01 10:53:23;;;;;;;3.33;2.70;;;20.60;79.60;;;;;;5032949;28;20037;-75
2023/08/01 10:55:49;;;;;;;4.38;3.53;;;20.60;80.10;;;;;;5019574;28;20029;-75
2023/08/01 10:58:15;;;;;;;4.82;2.80;;;20.60;80.80;;;;;;5015996;28;20654;-75
2023/08/01 11:00:44;;;;;;;6.05;2.70;;;;;;;;;;5015334;28;20022;-76
2023/08/01 11:03:10;;;;;;;4.30;2.80;;;20.70;80.00;;;;;;5014527;28;20117;-74
2023/08/01 11:05:36;;;;;;;3.88;3.42;;;20.90;80.70;;;;;;5014990;28;20116;-75
2023/08/01 11:08:03;;;;;;;5.97;3.47;;;21.10;80.20;;;;;;5013347;28;20112;-75
2023/08/01 11:10:31;;;;;;;3.20;2.85;;;21.20;79.50;;;;;;5015167;28;20467;-76
2023/08/01 11:12:57;;;;;;;4.03;3.20;;;21.20;77.80;;;;;;5015083;28;20088;-75
2023/08/01 11:15:24;;;;;;;5.00;3.45;;;21.10;77.80;;;;;;5015174;28;20037;-75
2023/08/01 11:17:54;;;;;;;4.15;2.60;;;21.00;78.70;;;;;;5016429;28;20032;-75
2023/08/01 11:20:22;;;;;;;4.28;2.75;;;20.90;78.70;;;;;;5017934;28;20491;-76
2023/08/01 11:22:59;;;;;;;4.22;2.33;;;20.80;79.50;;;;;;5018125;28;20025;-76
2023/08/01 11:25:37;;;;;;;3.17;2.40;;;20.80;80.10;;;;;;5016425;28;20109;-75
2023/08/01 11:28:08;;;;;;;2.67;1.98;;;20.80;80.50;;;;;;5017901;28;20056;-75
2023/08/01 11:30:34;;;;;;;2.25;2.00;;;20.80;80.70;;;;;;5017913;28;20025;-76
2023/08/01 11:33:02;;;;;;;4.50;2.38;;;20.90;80.40;;;;;;5016472;28;20052;-75
2023/08/01 11:35:28;;;;;;;2.55;1.90;;;20.90;79.80;;;;;;5016872;28;20029;-76
2023/08/01 11:37:55;;;;;;;2.92;2.17;;;20.80;80.60;;;;;;5015449;28;20029;-75
2023/08/01 11:40:21;;;;;;;2.38;2.03;;;20.80;80.90;;;;;;5015876;28;20466;-74
2023/08/01 11:42:52;;;;;;;2.90;2.60;;;20.80;81.20;;;;;;5016328;28;20059;-75
2023/08/01 11:45:20;;;;;;;2.10;1.90;;;20.80;80.30;;;;;;5015587;28;20029;-75
2023/08/01 11:47:47;;;;;;;3.53;2.50;;;20.70;81.40;;;;;;5015909;28;20420;-75
2023/08/01 11:50:14;;;;;;;3.38;2.30;;;20.70;81.60;;;;;;5018116;28;20033;-75
2023/08/01 11:52:39;;;;;;;4.15;2.63;;;20.60;81.60;;;;;;5015208;28;20471;-74
2023/08/01 11:55:06;;;;;;;2.53;2.33;;;20.60;82.40;;;;;;5015269;28;20033;-76
2023/08/01 11:57:31;;;;;;;5.78;3.28;;;20.40;82.80;;;;;;5013719;28;20405;-75
2023/08/01 11:59:57;;;;;;;3.30;2.78;;;20.20;83.40;;;;;;5015416;28;20084;-75
2023/08/01 12:02:24;;;;;;;4.45;2.88;;;20.10;84.10;;;;;;5015147;28;20037;-75
2023/08/01 12:04:50;;;;;;;7.50;2.83;;;20.10;84.90;;;;;;5016250;28;20042;-75
2023/08/01 12:07:16;;;;;;;4.65;2.30;;;20.20;84.90;;;;;;5015445;28;20072;-74
2023/08/01 12:09:43;;;;;;;4.60;2.72;;;20.20;84.50;;;;;;4999779;28;20038;-75
2023/08/01 12:12:09;;;;;;;2.42;2.13;;;20.20;84.40;;;;;;5016624;28;20029;-75
2023/08/01 12:14:40;;;;;;;4.05;2.70;;;20.20;84.70;;;;;;5012952;28;20507;-76
2023/08/01 12:17:06;;;;;;;3.15;2.70;;;20.30;84.90;;;;;;5015185;28;20028;-75
2023/08/01 12:19:33;;;;;;;3.45;2.67;;;20.50;85.00;;;;;;5015856;28;20026;-75
2023/08/01 12:21:59;;;;;;;2.97;2.50;;;20.80;83.80;;;;;;5013182;28;20061;-75
2023/08/01 12:24:25;;;;;;;2.58;2.35;;;21.20;81.80;;;;;;5015651;28;20080;-76
2023/08/01 12:26:51;;;;;;;2.40;2.20;;;21.70;81.10;;;;;;5014341;28;20022;-75
2023/08/01 12:29:17;;;;;;;3.10;2.13;;;22.00;79.00;;;;;;5014640;28;20471;-75
2023/08/01 12:31:42;;;;;;;3.47;2.40;;;22.20;78.10;;;;;;5015103;28;20026;-75
2023/08/01 12:34:08;;;;;;;3.10;2.60;;;22.30;78.40;;;;;;5016144;28;20493;-75
2023/08/01 12:36:34;;;;;;;2.72;2.53;;;22.40;77.60;;;;;;5017701;28;20045;-74
2023/08/01 12:38:59;;;;;;;6.55;2.60;;;22.30;77.60;;;;;;5015378;28;20029;-75
2023/08/01 12:41:25;;;;;;;2.45;2.10;;;22.10;77.90;;;;;;5014795;28;20105;-77
2023/08/01 12:43:51;;;;;;;2.90;2.03;;;21.90;78.40;;;;;;5013133;28;20034;-76
2023/08/01 12:46:16;;;;;;;3.00;2.13;;;21.90;78.70;;;;;;5015935;28;20537;-77